Private Wetterstation Nrnberg - Katzwang
Wetterdaten: November 2011
Datum Temp. A. Feuchte A. Luftdruck Regen Wind Richtung Taupunkt Windchill Windben
01.11.2011 7,4 C 87 % 1016 hPa 0,0 l/m 5,1 km/h N 5,5 C 6,7 C 6,1 km/h
02.11.2011 6,9 C 88 % 1014 hPa 0,0 l/m 10,4 km/h NO 5,0 C 3,9 C 15,9 km/h
03.11.2011 5,9 C 85 % 1008 hPa 0,0 l/m 4,4 km/h NO 3,5 C 4,9 C 5,4 km/h
04.11.2011 6,6 C 85 % 1006 hPa 0,0 l/m 3,8 km/h NO 4,2 C 6,2 C 4,8 km/h
05.11.2011 7,6 C 82 % 1007 hPa 0,0 l/m 1,5 km/h O 4,7 C 7,6 C 2,5 km/h
06.11.2011 7,7 C 83 % 1010 hPa 0,0 l/m 1,5 km/h O-NO 4,8 C 7,7 C 2,5 km/h
07.11.2011 7,2 C 80 % 1014 hPa 0,0 l/m 3,1 km/h O 3,6 C 6,5 C 4,1 km/h
08.11.2011 5,8 C 81 % 1016 hPa 0,0 l/m 2,0 km/h O 2,6 C 5,5 C 3,0 km/h
09.11.2011 6,3 C 87 % 1020 hPa 0,0 l/m 0,0 km/h NO 4,3 C 6,3 C 1,0 km/h
10.11.2011 6,7 C 88 % 1020 hPa 0,0 l/m 1,9 km/h O 4,7 C 6,5 C 2,9 km/h
11.11.2011 2,9 C 80 % 1023 hPa 0,0 l/m 6,5 km/h O -0,3 C 0,5 C 7,5 km/h
12.11.2011 0,4 C 87 % 1031 hPa 0,0 l/m 4,6 km/h O -1,5 C -0,8 C 5,6 km/h
13.11.2011 0,4 C 83 % 1029 hPa 0,0 l/m 1,4 km/h N-NO -2,2 C 0,4 C 2,4 km/h
14.11.2011 0,2 C 84 % 1023 hPa 0,0 l/m 0,7 km/h N-NO -2,3 C 0,2 C 1,7 km/h
15.11.2011 -1,5 C 87 % 1019 hPa 0,0 l/m 2,0 km/h NO -3,4 C -2,0 C 3,0 km/h
16.11.2011 0,2 C 86 % 1020 hPa 0,0 l/m 4,6 km/h NO -1,9 C 0,2 C 5,6 km/h
17.11.2011 3,2 C 84 % 1022 hPa 0,0 l/m 5,3 km/h N-NO 0,6 C 1,5 C 6,3 km/h
18.11.2011 6,1 C 84 % 1021 hPa 0,0 l/m 1,2 km/h O-NO 3,6 C 6,1 C 2,2 km/h
19.11.2011 2,2 C 87 % 1021 hPa 0,0 l/m 6,0 km/h NO 0,2 C 0,7 C 7,0 km/h
20.11.2011 3,8 C 86 % 1019 hPa 0,5 l/m 7,7 km/h NO 1,7 C 1,6 C 8,7 km/h
21.11.2011 2,2 C 83 % 1017 hPa 0,0 l/m 2,4 km/h O-NO -0,4 C 1,6 C 3,4 km/h
22.11.2011 1,4 C 83 % 1018 hPa 0,0 l/m 0,7 km/h O-NO -1,4 C 1,4 C 1,7 km/h
23.11.2011 2,5 C 87 % 1026 hPa 0,0 l/m 0,0 km/h N-NO 0,5 C 2,5 C 1,0 km/h
24.11.2011 0,2 C 87 % 1031 hPa 0,0 l/m 4,1 km/h O -1,7 C -0,3 C 5,1 km/h
25.11.2011 -0,5 C 87 % 1026 hPa 0,0 l/m 3,8 km/h N-NO -2,4 C -1,1 C 4,8 km/h
26.11.2011 3,0 C 87 % 1028 hPa 0,0 l/m 1,4 km/h W-NW 1,0 C 3,0 C 2,4 km/h
27.11.2011 6,8 C 76 % 1021 hPa 0,0 l/m 7,5 km/h W-NW 2,5 C 4,0 C 8,5 km/h
28.11.2011 1,0 C 84 % 1025 hPa 0,0 l/m 2,0 km/h NO -1,5 C 1,0 C 3,0 km/h
29.11.2011 2,5 C 88 % 1020 hPa 0,0 l/m 1,7 km/h NO 0,7 C 2,4 C 2,7 km/h
30.11.2011 4,4 C 89 % 1025 hPa 0,0 l/m 0,0 km/h NO 2,7 C 4,4 C 1,0 km/h
Min-Datum 14.11.11 27.11.11 04.11.11 1 Tage 01.11.11 - 14.11.11 25.11.11 01.11.11
Min-Zeit 06:40 14:40 00:20 - 00:10 - 06:40 06:50 00:10
Minimum -5,2 C 45 % 1005 hPa - 0,0 km/h - -6,9 C -12,6 C 1,0 km/h
Max-Datum 07.11.11 01.11.11 24.11.11 20.11.11 02.11.11 - 06.11.11 05.11.11 27.11.11
Max-Zeit 13:40 01:10 10:10 19:30 19:10 - 16:00 14:50 15:50
Maximum 16,2 C 89 % 1033 hPa 0,5 l/m 27,4 km/h
NO
- 10,3 C 15,7 C 56,4 km/h
W-NW
Durchschnitt 3,6 C 85 % 1020 hPa #0,5 l/m 3,3 km/h NO 1,2 C 3,0 C 4,4 km/h

Durchschnitt Minimum Temp.0,1 C
Durchschnitt Maximum Temp.8,2 C